sensor_id;sensor_type;location;lat;lon;timestamp;pressure;altitude;pressure_sealevel;temperature;humidity
21357;BME280;10836;53.068;18.234;2022-08-19T00:01:29;100599.59;;;19.02;100.00
21357;BME280;10836;53.068;18.234;2022-08-19T00:03:58;100597.69;;;18.94;100.00
21357;BME280;10836;53.068;18.234;2022-08-19T00:06:27;100603.13;;;19.11;100.00
21357;BME280;10836;53.068;18.234;2022-08-19T00:08:54;100590.41;;;19.10;100.00
21357;BME280;10836;53.068;18.234;2022-08-19T00:11:22;100586.59;;;18.94;100.00
21357;BME280;10836;53.068;18.234;2022-08-19T00:13:52;100591.09;;;19.07;100.00
21357;BME280;10836;53.068;18.234;2022-08-19T00:16:20;100597.38;;;18.87;100.00
21357;BME280;10836;53.068;18.234;2022-08-19T00:18:52;100589.25;;;18.82;100.00
21357;BME280;10836;53.068;18.234;2022-08-19T00:21:20;100596.91;;;18.76;100.00
21357;BME280;10836;53.068;18.234;2022-08-19T00:23:47;100597.38;;;18.87;100.00
21357;BME280;10836;53.068;18.234;2022-08-19T00:26:14;100601.28;;;18.86;100.00
21357;BME280;10836;53.068;18.234;2022-08-19T00:28:41;100600.69;;;18.72;100.00
21357;BME280;10836;53.068;18.234;2022-08-19T00:31:09;100591.06;;;18.78;100.00
21357;BME280;10836;53.068;18.234;2022-08-19T00:33:37;100592.38;;;18.72;100.00
21357;BME280;10836;53.068;18.234;2022-08-19T00:36:07;100590.00;;;18.62;100.00
21357;BME280;10836;53.068;18.234;2022-08-19T00:38:36;100584.13;;;18.54;100.00
21357;BME280;10836;53.068;18.234;2022-08-19T00:41:05;100593.25;;;18.46;100.00
21357;BME280;10836;53.068;18.234;2022-08-19T00:43:33;100590.66;;;18.41;100.00
21357;BME280;10836;53.068;18.234;2022-08-19T00:46:00;100581.22;;;18.42;100.00
21357;BME280;10836;53.068;18.234;2022-08-19T00:48:33;100585.78;;;18.38;100.00
21357;BME280;10836;53.068;18.234;2022-08-19T00:51:01;100592.28;;;18.42;100.00
21357;BME280;10836;53.068;18.234;2022-08-19T00:53:29;100591.97;;;18.35;100.00
21357;BME280;10836;53.068;18.234;2022-08-19T00:55:59;100589.03;;;18.40;100.00
21357;BME280;10836;53.068;18.234;2022-08-19T00:58:30;100591.31;;;18.29;100.00
21357;BME280;10836;53.068;18.234;2022-08-19T01:00:59;100587.59;;;18.25;100.00
21357;BME280;10836;53.068;18.234;2022-08-19T01:03:27;100585.16;;;18.24;100.00
21357;BME280;10836;53.068;18.234;2022-08-19T01:06:15;100592.94;;;18.22;100.00
21357;BME280;10836;53.068;18.234;2022-08-19T01:08:46;100594.25;;;18.24;100.00
21357;BME280;10836;53.068;18.234;2022-08-19T01:11:16;100592.31;;;18.25;100.00
21357;BME280;10836;53.068;18.234;2022-08-19T01:13:44;100588.75;;;18.16;100.00
21357;BME280;10836;53.068;18.234;2022-08-19T01:16:18;100588.44;;;18.09;100.00
21357;BME280;10836;53.068;18.234;2022-08-19T01:18:46;100580.97;;;18.09;100.00
21357;BME280;10836;53.068;18.234;2022-08-19T01:23:55;100578.53;;;18.16;100.00
21357;BME280;10836;53.068;18.234;2022-08-19T01:26:24;100577.06;;;18.19;100.00
21357;BME280;10836;53.068;18.234;2022-08-19T01:28:54;100578.47;;;18.25;100.00
21357;BME280;10836;53.068;18.234;2022-08-19T01:31:28;100574.75;;;18.21;100.00
21357;BME280;10836;53.068;18.234;2022-08-19T01:34:01;100569.25;;;18.12;100.00
21357;BME280;10836;53.068;18.234;2022-08-19T01:36:34;100573.97;;;18.03;100.00
21357;BME280;10836;53.068;18.234;2022-08-19T01:39:05;100560.81;;;18.09;100.00
21357;BME280;10836;53.068;18.234;2022-08-19T01:41:33;100561.13;;;17.99;100.00
21357;BME280;10836;53.068;18.234;2022-08-19T01:44:01;100557.25;;;18.00;100.00
21357;BME280;10836;53.068;18.234;2022-08-19T01:46:46;100569.09;;;17.91;100.00
21357;BME280;10836;53.068;18.234;2022-08-19T01:49:15;100567.63;;;17.85;100.00
21357;BME280;10836;53.068;18.234;2022-08-19T01:51:43;100566.16;;;17.79;100.00
21357;BME280;10836;53.068;18.234;2022-08-19T01:54:13;100565.19;;;17.84;100.00
21357;BME280;10836;53.068;18.234;2022-08-19T01:56:58;100563.41;;;17.79;100.00
21357;BME280;10836;53.068;18.234;2022-08-19T01:59:27;100558.22;;;17.86;100.00
21357;BME280;10836;53.068;18.234;2022-08-19T02:01:55;100560.16;;;17.77;100.00
21357;BME280;10836;53.068;18.234;2022-08-19T02:04:22;100548.31;;;17.77;100.00
21357;BME280;10836;53.068;18.234;2022-08-19T02:06:50;100545.53;;;17.85;100.00
21357;BME280;10836;53.068;18.234;2022-08-19T02:09:17;100539.19;;;17.93;100.00
21357;BME280;10836;53.068;18.234;2022-08-19T02:11:44;100538.06;;;17.94;100.00
21357;BME280;10836;53.068;18.234;2022-08-19T02:14:11;100529.28;;;17.92;100.00
21357;BME280;10836;53.068;18.234;2022-08-19T02:16:38;100518.56;;;18.00;100.00
21357;BME280;10836;53.068;18.234;2022-08-19T02:19:07;100517.91;;;18.03;100.00
21357;BME280;10836;53.068;18.234;2022-08-19T02:21:34;100515.97;;;18.03;100.00
21357;BME280;10836;53.068;18.234;2022-08-19T02:24:02;100509.47;;;17.90;100.00
21357;BME280;10836;53.068;18.234;2022-08-19T02:26:29;100514.34;;;17.93;100.00
21357;BME280;10836;53.068;18.234;2022-08-19T02:28:56;100515.63;;;18.05;100.00
21357;BME280;10836;53.068;18.234;2022-08-19T02:31:24;100517.25;;;17.97;100.00
21357;BME280;10836;53.068;18.234;2022-08-19T02:33:52;100526.53;;;18.01;100.00
21357;BME280;10836;53.068;18.234;2022-08-19T02:36:24;100532.22;;;18.05;100.00
21357;BME280;10836;53.068;18.234;2022-08-19T02:38:51;100522.13;;;18.09;100.00
21357;BME280;10836;53.068;18.234;2022-08-19T02:41:32;100533.34;;;18.12;100.00
21357;BME280;10836;53.068;18.234;2022-08-19T02:44:01;100537.41;;;18.15;100.00
21357;BME280;10836;53.068;18.234;2022-08-19T02:46:49;100538.22;;;18.07;100.00
21357;BME280;10836;53.068;18.234;2022-08-19T02:49:18;100539.34;;;18.06;100.00
21357;BME280;10836;53.068;18.234;2022-08-19T02:51:46;100528.47;;;18.09;100.00
21357;BME280;10836;53.068;18.234;2022-08-19T02:54:14;100539.19;;;18.19;100.00
21357;BME280;10836;53.068;18.234;2022-08-19T02:56:43;100530.34;;;18.26;100.00
21357;BME280;10836;53.068;18.234;2022-08-19T02:59:11;100525.47;;;18.23;100.00
21357;BME280;10836;53.068;18.234;2022-08-19T03:01:40;100526.50;;;18.10;100.00
21357;BME280;10836;53.068;18.234;2022-08-19T03:04:10;100522.78;;;18.06;100.00
21357;BME280;10836;53.068;18.234;2022-08-19T03:06:39;100533.16;;;18.17;100.00
21357;BME280;10836;53.068;18.234;2022-08-19T03:09:07;100527.00;;;18.03;100.00
21357;BME280;10836;53.068;18.234;2022-08-19T03:11:35;100531.72;;;18.11;100.00
21357;BME280;10836;53.068;18.234;2022-08-19T03:14:03;100525.00;;;18.21;100.00
21357;BME280;10836;53.068;18.234;2022-08-19T03:16:34;100529.09;;;18.15;100.00
21357;BME280;10836;53.068;18.234;2022-08-19T03:19:02;100520.81;;;18.15;100.00
21357;BME280;10836;53.068;18.234;2022-08-19T03:21:32;100533.59;;;18.28;100.00
21357;BME280;10836;53.068;18.234;2022-08-19T03:24:02;100529.22;;;18.27;100.00
21357;BME280;10836;53.068;18.234;2022-08-19T03:26:31;100540.44;;;18.22;100.00
21357;BME280;10836;53.068;18.234;2022-08-19T03:29:01;100534.81;;;18.10;100.00
21357;BME280;10836;53.068;18.234;2022-08-19T03:31:31;100532.84;;;18.02;100.00
21357;BME280;10836;53.068;18.234;2022-08-19T03:34:25;100540.00;;;18.03;100.00
21357;BME280;10836;53.068;18.234;2022-08-19T03:36:58;100531.06;;;17.97;100.00
21357;BME280;10836;53.068;18.234;2022-08-19T03:39:26;100529.59;;;18.08;100.00
21357;BME280;10836;53.068;18.234;2022-08-19T03:41:54;100523.13;;;17.95;100.00
21357;BME280;10836;53.068;18.234;2022-08-19T03:44:49;100525.72;;;18.01;100.00
21357;BME280;10836;53.068;18.234;2022-08-19T03:47:16;100526.19;;;18.03;100.00
21357;BME280;10836;53.068;18.234;2022-08-19T03:49:44;100513.94;;;18.21;100.00
21357;BME280;10836;53.068;18.234;2022-08-19T03:52:11;100513.28;;;18.24;100.00
21357;BME280;10836;53.068;18.234;2022-08-19T03:54:38;100506.13;;;18.23;100.00
21357;BME280;10836;53.068;18.234;2022-08-19T03:57:06;100511.00;;;18.26;100.00
21357;BME280;10836;53.068;18.234;2022-08-19T03:59:36;100509.03;;;18.35;100.00
21357;BME280;10836;53.068;18.234;2022-08-19T04:02:08;100508.88;;;18.32;100.00
21357;BME280;10836;53.068;18.234;2022-08-19T04:04:41;100512.94;;;18.34;100.00
21357;BME280;10836;53.068;18.234;2022-08-19T04:07:11;100514.22;;;18.45;100.00
21357;BME280;10836;53.068;18.234;2022-08-19T04:09:41;100512.59;;;18.44;100.00
21357;BME280;10836;53.068;18.234;2022-08-19T04:12:08;100515.00;;;18.54;100.00
21357;BME280;10836;53.068;18.234;2022-08-19T04:14:35;100513.50;;;18.66;100.00
21357;BME280;10836;53.068;18.234;2022-08-19T04:17:03;100501.59;;;18.74;100.00
21357;BME280;10836;53.068;18.234;2022-08-19T04:19:33;100512.91;;;18.89;100.00
21357;BME280;10836;53.068;18.234;2022-08-19T04:22:02;100524.34;;;18.79;100.00
21357;BME280;10836;53.068;18.234;2022-08-19T04:24:29;100528.22;;;18.87;100.00
21357;BME280;10836;53.068;18.234;2022-08-19T04:26:59;100518.19;;;19.03;100.00
21357;BME280;10836;53.068;18.234;2022-08-19T04:29:27;100512.41;;;19.17;100.00
21357;BME280;10836;53.068;18.234;2022-08-19T04:31:55;100528.09;;;19.34;100.00
21357;BME280;10836;53.068;18.234;2022-08-19T04:34:27;100533.50;;;19.51;100.00
21357;BME280;10836;53.068;18.234;2022-08-19T04:36:57;100537.16;;;19.43;100.00
21357;BME280;10836;53.068;18.234;2022-08-19T04:39:28;100543.63;;;19.47;100.00
21357;BME280;10836;53.068;18.234;2022-08-19T04:42:17;100547.16;;;19.56;100.00
21357;BME280;10836;53.068;18.234;2022-08-19T04:45:05;100551.91;;;19.76;100.00
21357;BME280;10836;53.068;18.234;2022-08-19T04:47:41;100551.88;;;19.97;100.00
21357;BME280;10836;53.068;18.234;2022-08-19T04:50:26;100560.56;;;20.08;100.00
21357;BME280;10836;53.068;18.234;2022-08-19T04:52:53;100552.53;;;20.15;100.00
21357;BME280;10836;53.068;18.234;2022-08-19T04:55:23;100558.81;;;20.36;100.00
21357;BME280;10836;53.068;18.234;2022-08-19T04:57:53;100557.72;;;20.49;100.00
21357;BME280;10836;53.068;18.234;2022-08-19T05:00:21;100543.88;;;20.62;100.00
21357;BME280;10836;53.068;18.234;2022-08-19T05:02:48;100545.75;;;20.70;100.00
21357;BME280;10836;53.068;18.234;2022-08-19T05:05:16;100543.91;;;20.74;100.00
21357;BME280;10836;53.068;18.234;2022-08-19T05:07:43;100543.56;;;20.75;100.00
21357;BME280;10836;53.068;18.234;2022-08-19T05:10:10;100536.13;;;20.91;100.00
21357;BME280;10836;53.068;18.234;2022-08-19T05:12:38;100541.13;;;20.98;100.00
21357;BME280;10836;53.068;18.234;2022-08-19T05:15:08;100542.97;;;21.06;100.00
21357;BME280;10836;53.068;18.234;2022-08-19T05:17:35;100529.41;;;21.29;100.00
21357;BME280;10836;53.068;18.234;2022-08-19T05:20:06;100528.13;;;21.39;100.00
21357;BME280;10836;53.068;18.234;2022-08-19T05:22:52;100523.00;;;21.53;100.00
21357;BME280;10836;53.068;18.234;2022-08-19T05:25:20;100521.91;;;21.70;100.00
21357;BME280;10836;53.068;18.234;2022-08-19T05:27:48;100528.03;;;21.75;100.00
21357;BME280;10836;53.068;18.234;2022-08-19T05:30:16;100517.31;;;21.89;99.09
21357;BME280;10836;53.068;18.234;2022-08-19T05:32:44;100522.97;;;22.05;97.76
21357;BME280;10836;53.068;18.234;2022-08-19T05:35:11;100525.03;;;22.24;97.32
21357;BME280;10836;53.068;18.234;2022-08-19T05:37:39;100526.84;;;22.32;96.81
21357;BME280;10836;53.068;18.234;2022-08-19T05:40:08;100528.16;;;22.50;95.73
21357;BME280;10836;53.068;18.234;2022-08-19T05:42:36;100532.41;;;22.32;95.91
21357;BME280;10836;53.068;18.234;2022-08-19T05:45:04;100536.91;;;22.37;96.45
21357;BME280;10836;53.068;18.234;2022-08-19T05:47:31;100542.13;;;22.38;95.92
21357;BME280;10836;53.068;18.234;2022-08-19T05:49:59;100547.69;;;22.38;96.02
21357;BME280;10836;53.068;18.234;2022-08-19T05:52:31;100550.53;;;22.26;96.16
21357;BME280;10836;53.068;18.234;2022-08-19T05:54:59;100551.25;;;22.23;96.67
21357;BME280;10836;53.068;18.234;2022-08-19T05:57:26;100552.28;;;22.46;96.32
21357;BME280;10836;53.068;18.234;2022-08-19T05:59:56;100545.00;;;22.57;95.71
21357;BME280;10836;53.068;18.234;2022-08-19T06:02:26;100536.75;;;22.77;94.63
21357;BME280;10836;53.068;18.234;2022-08-19T06:04:54;100551.78;;;22.88;92.58
21357;BME280;10836;53.068;18.234;2022-08-19T06:07:21;100554.34;;;23.12;91.90
21357;BME280;10836;53.068;18.234;2022-08-19T06:09:48;100553.97;;;23.30;89.08
21357;BME280;10836;53.068;18.234;2022-08-19T06:12:28;100551.78;;;23.39;89.82
21357;BME280;10836;53.068;18.234;2022-08-19T06:15:04;100559.06;;;23.78;88.42
21357;BME280;10836;53.068;18.234;2022-08-19T06:17:31;100554.63;;;23.97;86.14
21357;BME280;10836;53.068;18.234;2022-08-19T06:20:10;100563.31;;;24.11;85.32
21357;BME280;10836;53.068;18.234;2022-08-19T06:22:42;100562.41;;;24.26;84.49
21357;BME280;10836;53.068;18.234;2022-08-19T06:25:11;100562.28;;;24.61;84.11
21357;BME280;10836;53.068;18.234;2022-08-19T06:27:38;100562.69;;;24.86;81.08
21357;BME280;10836;53.068;18.234;2022-08-19T06:30:26;100563.03;;;25.04;80.19
21357;BME280;10836;53.068;18.234;2022-08-19T06:32:53;100561.47;;;25.33;78.90
21357;BME280;10836;53.068;18.234;2022-08-19T06:35:21;100558.22;;;25.57;77.57
21357;BME280;10836;53.068;18.234;2022-08-19T06:37:48;100560.91;;;25.76;76.67
21357;BME280;10836;53.068;18.234;2022-08-19T06:40:15;100542.78;;;25.97;75.72
21357;BME280;10836;53.068;18.234;2022-08-19T06:42:42;100545.72;;;26.41;73.05
21357;BME280;10836;53.068;18.234;2022-08-19T06:45:21;100540.50;;;26.87;71.88
21357;BME280;10836;53.068;18.234;2022-08-19T06:47:52;100543.41;;;26.98;69.23
21357;BME280;10836;53.068;18.234;2022-08-19T06:50:23;100547.97;;;27.16;68.89
21357;BME280;10836;53.068;18.234;2022-08-19T06:52:51;100542.50;;;26.83;69.76
21357;BME280;10836;53.068;18.234;2022-08-19T06:55:19;100537.41;;;26.55;70.55
21357;BME280;10836;53.068;18.234;2022-08-19T06:57:46;100537.03;;;26.57;70.33
21357;BME280;10836;53.068;18.234;2022-08-19T07:00:15;100533.66;;;26.81;69.76
21357;BME280;10836;53.068;18.234;2022-08-19T07:02:43;100529.75;;;27.51;67.92
21357;BME280;10836;53.068;18.234;2022-08-19T07:05:22;100516.25;;;27.05;67.39
21357;BME280;10836;53.068;18.234;2022-08-19T07:07:48;100517.66;;;27.40;66.93
21357;BME280;10836;53.068;18.234;2022-08-19T07:10:17;100514.34;;;28.00;64.89
21357;BME280;10836;53.068;18.234;2022-08-19T07:12:46;100525.31;;;28.76;61.90
21357;BME280;10836;53.068;18.234;2022-08-19T07:15:14;100524.53;;;29.00;61.15
21357;BME280;10836;53.068;18.234;2022-08-19T07:17:44;100518.47;;;29.12;60.91
21357;BME280;10836;53.068;18.234;2022-08-19T07:20:15;100520.84;;;29.32;60.49
21357;BME280;10836;53.068;18.234;2022-08-19T07:22:44;100519.59;;;29.58;58.73
21357;BME280;10836;53.068;18.234;2022-08-19T07:25:12;100516.06;;;30.30;57.77
21357;BME280;10836;53.068;18.234;2022-08-19T07:27:40;100519.97;;;30.43;56.68
21357;BME280;10836;53.068;18.234;2022-08-19T07:30:12;100523.09;;;30.63;56.04
21357;BME280;10836;53.068;18.234;2022-08-19T07:32:40;100526.00;;;30.45;56.43
21357;BME280;10836;53.068;18.234;2022-08-19T07:35:07;100512.34;;;30.92;54.89
21357;BME280;10836;53.068;18.234;2022-08-19T07:37:36;100517.78;;;31.17;54.59
21357;BME280;10836;53.068;18.234;2022-08-19T07:40:06;100511.63;;;31.26;53.75
21357;BME280;10836;53.068;18.234;2022-08-19T07:42:34;100510.88;;;32.20;52.27
21357;BME280;10836;53.068;18.234;2022-08-19T07:45:01;100521.59;;;31.37;52.82
21357;BME280;10836;53.068;18.234;2022-08-19T07:47:29;100523.16;;;31.42;52.50
21357;BME280;10836;53.068;18.234;2022-08-19T07:50:18;100523.50;;;32.12;50.31
21357;BME280;10836;53.068;18.234;2022-08-19T07:52:47;100514.75;;;31.72;50.60
21357;BME280;10836;53.068;18.234;2022-08-19T07:55:24;100511.03;;;31.45;51.89
21357;BME280;10836;53.068;18.234;2022-08-19T07:58:12;100522.09;;;32.27;50.59
21357;BME280;10836;53.068;18.234;2022-08-19T08:00:41;100523.56;;;32.89;48.69
21357;BME280;10836;53.068;18.234;2022-08-19T08:03:09;100520.03;;;32.55;46.73
21357;BME280;10836;53.068;18.234;2022-08-19T08:05:37;100520.34;;;33.74;44.85
21357;BME280;10836;53.068;18.234;2022-08-19T08:08:22;100519.50;;;32.90;44.59
21357;BME280;10836;53.068;18.234;2022-08-19T08:11:17;100516.44;;;33.67;43.13
21357;BME280;10836;53.068;18.234;2022-08-19T08:13:47;100507.84;;;33.91;42.00
21357;BME280;10836;53.068;18.234;2022-08-19T08:16:40;100504.81;;;32.76;44.01
21357;BME280;10836;53.068;18.234;2022-08-19T08:19:13;100499.47;;;32.81;42.08
21357;BME280;10836;53.068;18.234;2022-08-19T08:21:53;100487.38;;;32.27;43.77
21357;BME280;10836;53.068;18.234;2022-08-19T08:24:27;100494.88;;;32.10;43.15
21357;BME280;10836;53.068;18.234;2022-08-19T08:26:59;100497.94;;;32.73;42.70
21357;BME280;10836;53.068;18.234;2022-08-19T08:29:28;100488.56;;;32.80;41.96
21357;BME280;10836;53.068;18.234;2022-08-19T08:32:02;100502.91;;;33.55;41.63
21357;BME280;10836;53.068;18.234;2022-08-19T08:34:40;100502.63;;;33.30;40.31
21357;BME280;10836;53.068;18.234;2022-08-19T08:37:08;100489.56;;;32.43;41.50
21357;BME280;10836;53.068;18.234;2022-08-19T08:39:35;100493.00;;;32.30;41.84
21357;BME280;10836;53.068;18.234;2022-08-19T08:42:19;100496.03;;;32.43;41.75
21357;BME280;10836;53.068;18.234;2022-08-19T08:45:00;100498.44;;;32.45;42.53
21357;BME280;10836;53.068;18.234;2022-08-19T08:47:36;100498.47;;;32.91;40.95
21357;BME280;10836;53.068;18.234;2022-08-19T08:50:31;100502.09;;;32.92;41.52
21357;BME280;10836;53.068;18.234;2022-08-19T08:53:03;100505.72;;;32.92;41.11
21357;BME280;10836;53.068;18.234;2022-08-19T08:55:33;100506.41;;;32.77;41.28
21357;BME280;10836;53.068;18.234;2022-08-19T09:00:38;100504.09;;;32.14;41.59
21357;BME280;10836;53.068;18.234;2022-08-19T09:03:13;100506.28;;;32.03;42.69
21357;BME280;10836;53.068;18.234;2022-08-19T09:08:36;100497.59;;;32.94;40.86
21357;BME280;10836;53.068;18.234;2022-08-19T09:11:15;100505.38;;;33.73;39.65
21357;BME280;10836;53.068;18.234;2022-08-19T09:16:33;100481.97;;;34.25;38.50
21357;BME280;10836;53.068;18.234;2022-08-19T09:19:03;100479.38;;;34.50;37.79
21357;BME280;10836;53.068;18.234;2022-08-19T09:21:32;100482.47;;;34.56;38.14
21357;BME280;10836;53.068;18.234;2022-08-19T09:24:01;100480.47;;;33.84;39.09
21357;BME280;10836;53.068;18.234;2022-08-19T09:26:30;100487.72;;;33.85;39.57
21357;BME280;10836;53.068;18.234;2022-08-19T09:29:19;100485.38;;;32.78;41.92
21357;BME280;10836;53.068;18.234;2022-08-19T09:31:48;100485.03;;;33.19;40.37
21357;BME280;10836;53.068;18.234;2022-08-19T09:34:16;100474.00;;;32.81;40.96
21357;BME280;10836;53.068;18.234;2022-08-19T09:36:49;100472.28;;;33.50;39.50
21357;BME280;10836;53.068;18.234;2022-08-19T09:39:20;100477.94;;;34.58;39.10
21357;BME280;10836;53.068;18.234;2022-08-19T09:41:48;100478.28;;;32.43;41.09
21357;BME280;10836;53.068;18.234;2022-08-19T09:44:17;100466.31;;;32.82;41.16
21357;BME280;10836;53.068;18.234;2022-08-19T09:46:45;100466.47;;;34.29;37.92
21357;BME280;10836;53.068;18.234;2022-08-19T09:49:16;100469.00;;;34.60;37.79
21357;BME280;10836;53.068;18.234;2022-08-19T09:51:45;100463.94;;;35.13;37.76
21357;BME280;10836;53.068;18.234;2022-08-19T09:54:17;100463.03;;;35.74;37.92
21357;BME280;10836;53.068;18.234;2022-08-19T09:56:53;100463.84;;;34.39;37.16
21357;BME280;10836;53.068;18.234;2022-08-19T09:59:21;100463.59;;;34.49;38.54
21357;BME280;10836;53.068;18.234;2022-08-19T10:01:49;100456.13;;;35.17;37.72
21357;BME280;10836;53.068;18.234;2022-08-19T10:04:16;100467.53;;;34.19;38.06
21357;BME280;10836;53.068;18.234;2022-08-19T10:06:49;100461.31;;;34.24;38.18
21357;BME280;10836;53.068;18.234;2022-08-19T10:09:20;100473.28;;;33.40;38.65
21357;BME280;10836;53.068;18.234;2022-08-19T10:12:01;100464.28;;;33.85;37.91
21357;BME280;10836;53.068;18.234;2022-08-19T10:14:29;100466.78;;;33.00;39.11
21357;BME280;10836;53.068;18.234;2022-08-19T10:16:56;100463.66;;;32.48;41.70
21357;BME280;10836;53.068;18.234;2022-08-19T10:19:25;100454.59;;;33.03;41.33
21357;BME280;10836;53.068;18.234;2022-08-19T10:21:53;100457.28;;;32.90;41.31
21357;BME280;10836;53.068;18.234;2022-08-19T10:24:26;100436.81;;;33.02;40.93
21357;BME280;10836;53.068;18.234;2022-08-19T10:26:56;100444.69;;;33.54;38.65
21357;BME280;10836;53.068;18.234;2022-08-19T10:29:30;100434.03;;;33.62;39.86
21357;BME280;10836;53.068;18.234;2022-08-19T10:32:04;100426.69;;;34.00;40.04
21357;BME280;10836;53.068;18.234;2022-08-19T10:34:37;100425.94;;;34.32;37.57
21357;BME280;10836;53.068;18.234;2022-08-19T10:37:16;100423.81;;;34.36;38.82
21357;BME280;10836;53.068;18.234;2022-08-19T10:39:56;100425.16;;;33.60;38.89
21357;BME280;10836;53.068;18.234;2022-08-19T10:42:24;100426.41;;;33.39;39.52
21357;BME280;10836;53.068;18.234;2022-08-19T10:44:51;100436.31;;;32.88;40.63
21357;BME280;10836;53.068;18.234;2022-08-19T10:47:18;100429.31;;;32.49;41.14
21357;BME280;10836;53.068;18.234;2022-08-19T10:49:53;100426.28;;;32.60;41.64
21357;BME280;10836;53.068;18.234;2022-08-19T10:52:42;100424.38;;;32.30;42.17
21357;BME280;10836;53.068;18.234;2022-08-19T10:55:23;100427.69;;;32.71;41.48
21357;BME280;10836;53.068;18.234;2022-08-19T10:58:11;100427.50;;;32.35;41.71
21357;BME280;10836;53.068;18.234;2022-08-19T11:00:39;100416.59;;;32.84;41.12
21357;BME280;10836;53.068;18.234;2022-08-19T11:03:07;100410.75;;;33.90;41.07
21357;BME280;10836;53.068;18.234;2022-08-19T11:05:35;100405.88;;;33.91;39.81
21357;BME280;10836;53.068;18.234;2022-08-19T11:08:07;100401.78;;;34.89;37.89
21357;BME280;10836;53.068;18.234;2022-08-19T11:10:53;100395.81;;;34.39;37.94
21357;BME280;10836;53.068;18.234;2022-08-19T11:13:34;100394.22;;;34.38;37.75
21357;BME280;10836;53.068;18.234;2022-08-19T11:16:07;100387.69;;;34.86;36.89
21357;BME280;10836;53.068;18.234;2022-08-19T11:18:41;100373.13;;;35.54;37.15
21357;BME280;10836;53.068;18.234;2022-08-19T11:23:49;100359.25;;;35.31;35.61
21357;BME280;10836;53.068;18.234;2022-08-19T11:26:18;100367.19;;;34.94;37.15
21357;BME280;10836;53.068;18.234;2022-08-19T11:28:47;100377.84;;;34.74;36.41
21357;BME280;10836;53.068;18.234;2022-08-19T11:31:17;100356.28;;;33.83;38.50
21357;BME280;10836;53.068;18.234;2022-08-19T11:33:46;100350.63;;;34.93;37.89
21357;BME280;10836;53.068;18.234;2022-08-19T11:36:14;100340.19;;;35.44;35.63
21357;BME280;10836;53.068;18.234;2022-08-19T11:38:44;100346.44;;;35.64;36.17
21357;BME280;10836;53.068;18.234;2022-08-19T11:41:11;100352.22;;;36.12;36.08
21357;BME280;10836;53.068;18.234;2022-08-19T11:43:38;100356.13;;;35.80;36.02
21357;BME280;10836;53.068;18.234;2022-08-19T11:46:12;100359.25;;;35.31;34.73
21357;BME280;10836;53.068;18.234;2022-08-19T11:48:40;100357.28;;;34.86;36.01
21357;BME280;10836;53.068;18.234;2022-08-19T11:51:14;100359.31;;;34.41;37.49
21357;BME280;10836;53.068;18.234;2022-08-19T11:53:42;100368.19;;;34.72;37.09
21357;BME280;10836;53.068;18.234;2022-08-19T11:56:10;100358.59;;;34.98;37.56
21357;BME280;10836;53.068;18.234;2022-08-19T11:58:37;100351.00;;;35.49;35.64
21357;BME280;10836;53.068;18.234;2022-08-19T12:01:06;100364.00;;;34.92;36.60
21357;BME280;10836;53.068;18.234;2022-08-19T12:03:34;100353.59;;;33.59;37.82
21357;BME280;10836;53.068;18.234;2022-08-19T12:06:10;100364.28;;;34.04;38.10
21357;BME280;10836;53.068;18.234;2022-08-19T12:08:40;100343.38;;;33.98;38.13
21357;BME280;10836;53.068;18.234;2022-08-19T12:11:07;100373.16;;;34.67;37.67
21357;BME280;10836;53.068;18.234;2022-08-19T12:13:35;100362.63;;;35.26;36.56
21357;BME280;10836;53.068;18.234;2022-08-19T12:16:15;100371.09;;;35.42;35.97
21357;BME280;10836;53.068;18.234;2022-08-19T12:18:44;100373.75;;;35.87;35.71
21357;BME280;10836;53.068;18.234;2022-08-19T12:21:15;100363.53;;;35.90;35.97
21357;BME280;10836;53.068;18.234;2022-08-19T12:23:44;100367.09;;;35.40;34.92
21357;BME280;10836;53.068;18.234;2022-08-19T12:26:19;100372.09;;;34.32;35.88
21357;BME280;10836;53.068;18.234;2022-08-19T12:28:46;100370.56;;;34.44;37.19
21357;BME280;10836;53.068;18.234;2022-08-19T12:31:15;100367.53;;;34.96;36.78
21357;BME280;10836;53.068;18.234;2022-08-19T12:33:43;100383.88;;;34.92;36.02
21357;BME280;10836;53.068;18.234;2022-08-19T12:36:11;100353.94;;;34.14;36.42
21357;BME280;10836;53.068;18.234;2022-08-19T12:38:39;100362.94;;;34.25;36.99
21357;BME280;10836;53.068;18.234;2022-08-19T12:41:11;100367.09;;;33.88;37.80
21357;BME280;10836;53.068;18.234;2022-08-19T12:43:39;100382.09;;;33.68;38.25
21357;BME280;10836;53.068;18.234;2022-08-19T12:46:06;100367.78;;;33.76;37.41
21357;BME280;10836;53.068;18.234;2022-08-19T12:48:37;100364.91;;;33.95;38.14
21357;BME280;10836;53.068;18.234;2022-08-19T12:51:11;100354.72;;;34.47;36.00
21357;BME280;10836;53.068;18.234;2022-08-19T12:53:40;100355.94;;;34.46;37.38
21357;BME280;10836;53.068;18.234;2022-08-19T12:56:08;100356.75;;;34.30;37.66
21357;BME280;10836;53.068;18.234;2022-08-19T12:58:39;100355.25;;;34.42;37.59
21357;BME280;10836;53.068;18.234;2022-08-19T13:01:08;100366.84;;;34.31;36.51
21357;BME280;10836;53.068;18.234;2022-08-19T13:03:37;100365.59;;;33.83;37.34
21357;BME280;10836;53.068;18.234;2022-08-19T13:06:07;100367.00;;;33.91;36.32
21357;BME280;10836;53.068;18.234;2022-08-19T13:08:35;100365.84;;;33.72;36.43